sensor_id;sensor_type;location;lat;lon;timestamp;P1;durP1;ratioP1;P2;durP2;ratioP2
12122;SDS011;6125;59.628;17.852;2023-08-21T00:00:19;9.97;;;6.20;;
12122;SDS011;6125;59.628;17.852;2023-08-21T00:02:47;8.37;;;5.90;;
12122;SDS011;6125;59.628;17.852;2023-08-21T00:05:14;9.07;;;6.33;;
12122;SDS011;6125;59.628;17.852;2023-08-21T00:07:42;10.33;;;6.97;;
12122;SDS011;6125;59.628;17.852;2023-08-21T00:10:10;9.67;;;7.57;;
12122;SDS011;6125;59.628;17.852;2023-08-21T00:12:39;10.60;;;7.70;;
12122;SDS011;6125;59.628;17.852;2023-08-21T00:15:06;12.07;;;7.63;;
12122;SDS011;6125;59.628;17.852;2023-08-21T00:17:35;11.13;;;7.63;;
12122;SDS011;6125;59.628;17.852;2023-08-21T00:20:02;11.17;;;8.27;;
12122;SDS011;6125;59.628;17.852;2023-08-21T00:22:29;9.17;;;7.67;;
12122;SDS011;6125;59.628;17.852;2023-08-21T00:24:58;16.87;;;9.07;;
12122;SDS011;6125;59.628;17.852;2023-08-21T00:27:25;11.53;;;7.97;;
12122;SDS011;6125;59.628;17.852;2023-08-21T00:29:52;15.13;;;8.37;;
12122;SDS011;6125;59.628;17.852;2023-08-21T00:32:19;13.03;;;8.90;;
12122;SDS011;6125;59.628;17.852;2023-08-21T00:34:46;13.30;;;8.77;;
12122;SDS011;6125;59.628;17.852;2023-08-21T00:37:13;12.30;;;8.67;;
12122;SDS011;6125;59.628;17.852;2023-08-21T00:39:40;11.17;;;8.43;;
12122;SDS011;6125;59.628;17.852;2023-08-21T00:42:09;11.90;;;8.80;;
12122;SDS011;6125;59.628;17.852;2023-08-21T00:44:36;13.17;;;8.77;;
12122;SDS011;6125;59.628;17.852;2023-08-21T00:47:03;12.03;;;8.70;;
12122;SDS011;6125;59.628;17.852;2023-08-21T00:49:31;12.87;;;8.83;;
12122;SDS011;6125;59.628;17.852;2023-08-21T00:51:58;11.57;;;8.50;;
12122;SDS011;6125;59.628;17.852;2023-08-21T00:54:27;11.30;;;8.90;;
12122;SDS011;6125;59.628;17.852;2023-08-21T00:56:54;13.87;;;9.30;;
12122;SDS011;6125;59.628;17.852;2023-08-21T00:59:23;14.97;;;10.13;;
12122;SDS011;6125;59.628;17.852;2023-08-21T01:01:50;11.33;;;8.67;;
12122;SDS011;6125;59.628;17.852;2023-08-21T01:04:17;14.20;;;10.53;;
12122;SDS011;6125;59.628;17.852;2023-08-21T01:06:44;12.73;;;9.83;;
12122;SDS011;6125;59.628;17.852;2023-08-21T01:09:12;12.60;;;10.23;;
12122;SDS011;6125;59.628;17.852;2023-08-21T01:11:49;16.07;;;9.67;;
12122;SDS011;6125;59.628;17.852;2023-08-21T01:14:24;12.67;;;9.13;;
12122;SDS011;6125;59.628;17.852;2023-08-21T01:16:55;12.40;;;8.33;;
12122;SDS011;6125;59.628;17.852;2023-08-21T01:19:26;13.30;;;8.97;;
12122;SDS011;6125;59.628;17.852;2023-08-21T01:22:02;13.90;;;9.30;;
12122;SDS011;6125;59.628;17.852;2023-08-21T01:24:30;13.07;;;9.57;;
12122;SDS011;6125;59.628;17.852;2023-08-21T01:26:58;12.03;;;9.40;;
12122;SDS011;6125;59.628;17.852;2023-08-21T01:29:25;14.40;;;9.23;;
12122;SDS011;6125;59.628;17.852;2023-08-21T01:31:55;16.13;;;9.50;;
12122;SDS011;6125;59.628;17.852;2023-08-21T01:34:26;12.43;;;9.17;;
12122;SDS011;6125;59.628;17.852;2023-08-21T01:36:58;14.63;;;9.87;;
12122;SDS011;6125;59.628;17.852;2023-08-21T01:39:26;13.77;;;9.10;;
12122;SDS011;6125;59.628;17.852;2023-08-21T01:41:55;12.37;;;9.70;;
12122;SDS011;6125;59.628;17.852;2023-08-21T01:44:23;14.00;;;9.90;;
12122;SDS011;6125;59.628;17.852;2023-08-21T01:46:51;11.80;;;8.77;;
12122;SDS011;6125;59.628;17.852;2023-08-21T01:49:18;12.67;;;9.80;;
12122;SDS011;6125;59.628;17.852;2023-08-21T01:51:46;12.73;;;9.10;;
12122;SDS011;6125;59.628;17.852;2023-08-21T01:54:13;15.13;;;9.77;;
12122;SDS011;6125;59.628;17.852;2023-08-21T01:56:40;10.83;;;8.60;;
12122;SDS011;6125;59.628;17.852;2023-08-21T01:59:08;11.87;;;9.07;;
12122;SDS011;6125;59.628;17.852;2023-08-21T02:01:35;10.57;;;8.97;;
12122;SDS011;6125;59.628;17.852;2023-08-21T02:04:03;12.63;;;9.43;;
12122;SDS011;6125;59.628;17.852;2023-08-21T02:06:30;10.83;;;8.80;;
12122;SDS011;6125;59.628;17.852;2023-08-21T02:08:57;13.90;;;9.07;;
12122;SDS011;6125;59.628;17.852;2023-08-21T02:11:24;11.87;;;8.53;;
12122;SDS011;6125;59.628;17.852;2023-08-21T02:13:51;11.27;;;8.30;;
12122;SDS011;6125;59.628;17.852;2023-08-21T02:16:19;11.27;;;8.90;;
12122;SDS011;6125;59.628;17.852;2023-08-21T02:18:47;13.63;;;8.73;;
12122;SDS011;6125;59.628;17.852;2023-08-21T02:21:14;13.00;;;9.00;;
12122;SDS011;6125;59.628;17.852;2023-08-21T02:23:41;11.20;;;8.73;;
12122;SDS011;6125;59.628;17.852;2023-08-21T02:26:09;13.13;;;9.33;;
12122;SDS011;6125;59.628;17.852;2023-08-21T02:28:36;10.30;;;8.67;;
12122;SDS011;6125;59.628;17.852;2023-08-21T02:31:03;13.33;;;9.53;;
12122;SDS011;6125;59.628;17.852;2023-08-21T02:33:32;11.03;;;8.70;;
12122;SDS011;6125;59.628;17.852;2023-08-21T02:35:59;17.37;;;9.13;;
12122;SDS011;6125;59.628;17.852;2023-08-21T02:38:28;12.83;;;8.57;;
12122;SDS011;6125;59.628;17.852;2023-08-21T02:40:55;12.70;;;8.43;;
12122;SDS011;6125;59.628;17.852;2023-08-21T02:43:22;13.80;;;9.17;;
12122;SDS011;6125;59.628;17.852;2023-08-21T02:45:49;9.47;;;8.00;;
12122;SDS011;6125;59.628;17.852;2023-08-21T02:48:16;10.63;;;8.50;;
12122;SDS011;6125;59.628;17.852;2023-08-21T02:50:44;10.30;;;7.90;;
12122;SDS011;6125;59.628;17.852;2023-08-21T02:53:12;12.33;;;7.70;;
12122;SDS011;6125;59.628;17.852;2023-08-21T02:55:39;10.00;;;7.27;;
12122;SDS011;6125;59.628;17.852;2023-08-21T02:58:06;10.97;;;7.67;;
12122;SDS011;6125;59.628;17.852;2023-08-21T03:00:34;11.47;;;8.07;;
12122;SDS011;6125;59.628;17.852;2023-08-21T03:03:01;10.40;;;7.50;;
12122;SDS011;6125;59.628;17.852;2023-08-21T03:05:29;11.13;;;7.70;;
12122;SDS011;6125;59.628;17.852;2023-08-21T03:07:57;9.13;;;7.30;;
12122;SDS011;6125;59.628;17.852;2023-08-21T03:10:24;9.37;;;7.70;;
12122;SDS011;6125;59.628;17.852;2023-08-21T03:12:52;7.80;;;7.00;;
12122;SDS011;6125;59.628;17.852;2023-08-21T03:15:20;11.90;;;7.30;;
12122;SDS011;6125;59.628;17.852;2023-08-21T03:17:47;8.53;;;7.03;;
12122;SDS011;6125;59.628;17.852;2023-08-21T03:20:15;9.70;;;6.77;;
12122;SDS011;6125;59.628;17.852;2023-08-21T03:22:42;9.00;;;6.60;;
12122;SDS011;6125;59.628;17.852;2023-08-21T03:25:11;8.87;;;6.70;;
12122;SDS011;6125;59.628;17.852;2023-08-21T03:27:38;10.20;;;7.57;;
12122;SDS011;6125;59.628;17.852;2023-08-21T03:30:09;7.67;;;6.60;;
12122;SDS011;6125;59.628;17.852;2023-08-21T03:32:39;8.43;;;7.33;;
12122;SDS011;6125;59.628;17.852;2023-08-21T03:35:07;8.57;;;6.90;;
12122;SDS011;6125;59.628;17.852;2023-08-21T03:37:34;9.17;;;6.80;;
12122;SDS011;6125;59.628;17.852;2023-08-21T03:40:02;10.17;;;6.57;;
12122;SDS011;6125;59.628;17.852;2023-08-21T03:42:30;8.73;;;7.27;;
12122;SDS011;6125;59.628;17.852;2023-08-21T03:44:58;8.93;;;6.30;;
12122;SDS011;6125;59.628;17.852;2023-08-21T03:47:25;8.17;;;6.00;;
12122;SDS011;6125;59.628;17.852;2023-08-21T03:49:52;7.87;;;6.57;;
12122;SDS011;6125;59.628;17.852;2023-08-21T03:52:19;7.43;;;5.93;;
12122;SDS011;6125;59.628;17.852;2023-08-21T03:54:46;7.80;;;6.33;;
12122;SDS011;6125;59.628;17.852;2023-08-21T03:57:13;14.13;;;7.17;;
12122;SDS011;6125;59.628;17.852;2023-08-21T03:59:42;8.47;;;5.90;;
12122;SDS011;6125;59.628;17.852;2023-08-21T04:02:09;7.33;;;6.40;;
12122;SDS011;6125;59.628;17.852;2023-08-21T04:04:36;11.43;;;6.20;;
12122;SDS011;6125;59.628;17.852;2023-08-21T04:07:03;9.83;;;6.53;;
12122;SDS011;6125;59.628;17.852;2023-08-21T04:09:31;8.50;;;6.03;;
12122;SDS011;6125;59.628;17.852;2023-08-21T04:11:58;8.37;;;6.47;;
12122;SDS011;6125;59.628;17.852;2023-08-21T04:14:25;6.97;;;6.07;;
12122;SDS011;6125;59.628;17.852;2023-08-21T04:16:53;7.70;;;5.80;;
12122;SDS011;6125;59.628;17.852;2023-08-21T04:19:20;7.40;;;5.57;;
12122;SDS011;6125;59.628;17.852;2023-08-21T04:21:48;6.80;;;6.10;;
12122;SDS011;6125;59.628;17.852;2023-08-21T04:24:15;7.73;;;6.00;;
12122;SDS011;6125;59.628;17.852;2023-08-21T04:26:42;9.00;;;5.23;;
12122;SDS011;6125;59.628;17.852;2023-08-21T04:29:15;6.40;;;5.33;;
12122;SDS011;6125;59.628;17.852;2023-08-21T04:31:43;6.63;;;5.67;;
12122;SDS011;6125;59.628;17.852;2023-08-21T04:34:11;6.50;;;5.37;;
12122;SDS011;6125;59.628;17.852;2023-08-21T04:36:38;5.83;;;4.93;;
12122;SDS011;6125;59.628;17.852;2023-08-21T04:39:05;7.87;;;5.37;;
12122;SDS011;6125;59.628;17.852;2023-08-21T04:41:34;6.03;;;5.20;;
12122;SDS011;6125;59.628;17.852;2023-08-21T04:44:01;6.57;;;5.80;;
12122;SDS011;6125;59.628;17.852;2023-08-21T04:46:28;5.17;;;4.67;;
12122;SDS011;6125;59.628;17.852;2023-08-21T04:48:55;7.97;;;4.67;;
12122;SDS011;6125;59.628;17.852;2023-08-21T04:51:24;5.87;;;4.87;;
12122;SDS011;6125;59.628;17.852;2023-08-21T04:53:51;7.97;;;5.27;;
12122;SDS011;6125;59.628;17.852;2023-08-21T04:56:18;5.17;;;4.43;;
12122;SDS011;6125;59.628;17.852;2023-08-21T04:58:45;5.40;;;4.90;;
12122;SDS011;6125;59.628;17.852;2023-08-21T05:01:12;6.97;;;5.03;;
12122;SDS011;6125;59.628;17.852;2023-08-21T05:03:39;5.93;;;4.87;;
12122;SDS011;6125;59.628;17.852;2023-08-21T05:06:07;6.00;;;5.07;;
12122;SDS011;6125;59.628;17.852;2023-08-21T05:08:35;7.40;;;4.67;;
12122;SDS011;6125;59.628;17.852;2023-08-21T05:11:02;6.30;;;4.93;;
12122;SDS011;6125;59.628;17.852;2023-08-21T05:13:29;6.40;;;5.37;;
12122;SDS011;6125;59.628;17.852;2023-08-21T05:15:57;7.40;;;5.30;;
12122;SDS011;6125;59.628;17.852;2023-08-21T05:18:25;7.07;;;5.70;;
12122;SDS011;6125;59.628;17.852;2023-08-21T05:20:54;6.50;;;5.20;;
12122;SDS011;6125;59.628;17.852;2023-08-21T05:23:22;6.93;;;4.73;;
12122;SDS011;6125;59.628;17.852;2023-08-21T05:25:50;5.63;;;4.77;;
12122;SDS011;6125;59.628;17.852;2023-08-21T05:28:17;6.47;;;5.00;;
12122;SDS011;6125;59.628;17.852;2023-08-21T05:30:46;6.50;;;4.47;;
12122;SDS011;6125;59.628;17.852;2023-08-21T05:33:14;8.77;;;5.40;;
12122;SDS011;6125;59.628;17.852;2023-08-21T05:35:41;6.33;;;4.77;;
12122;SDS011;6125;59.628;17.852;2023-08-21T05:38:08;6.80;;;5.07;;
12122;SDS011;6125;59.628;17.852;2023-08-21T05:40:35;6.87;;;5.47;;
12122;SDS011;6125;59.628;17.852;2023-08-21T05:43:03;5.60;;;4.97;;
12122;SDS011;6125;59.628;17.852;2023-08-21T05:45:31;6.43;;;5.00;;
12122;SDS011;6125;59.628;17.852;2023-08-21T05:47:58;6.23;;;4.83;;
12122;SDS011;6125;59.628;17.852;2023-08-21T05:50:25;6.43;;;4.43;;
12122;SDS011;6125;59.628;17.852;2023-08-21T05:52:52;6.87;;;4.53;;
12122;SDS011;6125;59.628;17.852;2023-08-21T05:55:19;10.67;;;4.97;;
12122;SDS011;6125;59.628;17.852;2023-08-21T05:57:47;6.23;;;4.20;;
12122;SDS011;6125;59.628;17.852;2023-08-21T06:00:16;8.00;;;4.47;;
12122;SDS011;6125;59.628;17.852;2023-08-21T06:02:43;7.13;;;4.07;;
12122;SDS011;6125;59.628;17.852;2023-08-21T06:05:10;6.60;;;4.13;;
12122;SDS011;6125;59.628;17.852;2023-08-21T06:07:37;6.03;;;4.03;;
12122;SDS011;6125;59.628;17.852;2023-08-21T06:10:06;6.90;;;3.80;;
12122;SDS011;6125;59.628;17.852;2023-08-21T06:12:36;6.07;;;3.80;;
12122;SDS011;6125;59.628;17.852;2023-08-21T06:15:04;4.37;;;3.97;;
12122;SDS011;6125;59.628;17.852;2023-08-21T06:17:34;7.77;;;4.40;;
12122;SDS011;6125;59.628;17.852;2023-08-21T06:20:02;8.33;;;3.83;;
12122;SDS011;6125;59.628;17.852;2023-08-21T06:22:30;5.00;;;3.90;;
12122;SDS011;6125;59.628;17.852;2023-08-21T06:24:57;9.13;;;3.83;;
12122;SDS011;6125;59.628;17.852;2023-08-21T06:27:24;5.97;;;3.87;;
12122;SDS011;6125;59.628;17.852;2023-08-21T06:29:52;5.77;;;3.90;;
12122;SDS011;6125;59.628;17.852;2023-08-21T06:32:19;7.83;;;3.87;;
12122;SDS011;6125;59.628;17.852;2023-08-21T06:34:47;8.03;;;3.73;;
12122;SDS011;6125;59.628;17.852;2023-08-21T06:37:14;7.27;;;3.50;;
12122;SDS011;6125;59.628;17.852;2023-08-21T06:39:41;7.07;;;3.33;;
12122;SDS011;6125;59.628;17.852;2023-08-21T06:42:08;8.00;;;3.10;;
12122;SDS011;6125;59.628;17.852;2023-08-21T06:44:35;4.80;;;3.30;;
12122;SDS011;6125;59.628;17.852;2023-08-21T06:47:02;4.73;;;3.40;;
12122;SDS011;6125;59.628;17.852;2023-08-21T06:49:30;9.00;;;3.57;;
12122;SDS011;6125;59.628;17.852;2023-08-21T06:51:58;9.83;;;3.50;;
12122;SDS011;6125;59.628;17.852;2023-08-21T06:54:25;5.23;;;3.40;;
12122;SDS011;6125;59.628;17.852;2023-08-21T06:56:52;9.97;;;4.20;;
12122;SDS011;6125;59.628;17.852;2023-08-21T06:59:19;7.50;;;3.30;;
12122;SDS011;6125;59.628;17.852;2023-08-21T07:01:46;7.60;;;3.50;;
12122;SDS011;6125;59.628;17.852;2023-08-21T07:04:14;6.63;;;3.20;;
12122;SDS011;6125;59.628;17.852;2023-08-21T07:06:41;7.40;;;3.20;;
12122;SDS011;6125;59.628;17.852;2023-08-21T07:09:09;5.30;;;3.30;;
12122;SDS011;6125;59.628;17.852;2023-08-21T07:11:36;6.00;;;2.63;;
12122;SDS011;6125;59.628;17.852;2023-08-21T07:14:03;7.57;;;3.13;;
12122;SDS011;6125;59.628;17.852;2023-08-21T07:16:30;5.63;;;3.27;;
12122;SDS011;6125;59.628;17.852;2023-08-21T07:18:58;5.73;;;2.90;;
12122;SDS011;6125;59.628;17.852;2023-08-21T07:21:25;5.53;;;2.97;;
12122;SDS011;6125;59.628;17.852;2023-08-21T07:23:52;4.97;;;3.00;;
12122;SDS011;6125;59.628;17.852;2023-08-21T07:26:20;6.03;;;2.60;;
12122;SDS011;6125;59.628;17.852;2023-08-21T07:28:47;4.50;;;2.70;;
12122;SDS011;6125;59.628;17.852;2023-08-21T07:31:14;4.10;;;3.20;;
12122;SDS011;6125;59.628;17.852;2023-08-21T07:33:42;4.63;;;3.00;;
12122;SDS011;6125;59.628;17.852;2023-08-21T07:36:09;7.87;;;3.30;;
12122;SDS011;6125;59.628;17.852;2023-08-21T07:38:40;8.13;;;3.20;;
12122;SDS011;6125;59.628;17.852;2023-08-21T07:41:07;5.63;;;3.30;;
12122;SDS011;6125;59.628;17.852;2023-08-21T07:43:37;3.33;;;2.77;;
12122;SDS011;6125;59.628;17.852;2023-08-21T07:46:06;5.00;;;3.00;;
12122;SDS011;6125;59.628;17.852;2023-08-21T07:48:34;4.43;;;2.83;;
12122;SDS011;6125;59.628;17.852;2023-08-21T07:51:02;6.47;;;3.10;;
12122;SDS011;6125;59.628;17.852;2023-08-21T07:53:29;4.73;;;3.20;;
12122;SDS011;6125;59.628;17.852;2023-08-21T07:55:56;6.17;;;3.07;;
12122;SDS011;6125;59.628;17.852;2023-08-21T07:58:24;8.10;;;3.00;;
12122;SDS011;6125;59.628;17.852;2023-08-21T08:00:52;5.63;;;3.17;;
12122;SDS011;6125;59.628;17.852;2023-08-21T08:03:20;5.03;;;2.80;;
12122;SDS011;6125;59.628;17.852;2023-08-21T08:05:47;9.27;;;2.80;;
12122;SDS011;6125;59.628;17.852;2023-08-21T08:08:16;7.70;;;3.33;;
12122;SDS011;6125;59.628;17.852;2023-08-21T08:10:43;7.83;;;2.83;;
12122;SDS011;6125;59.628;17.852;2023-08-21T08:13:10;6.00;;;2.73;;
12122;SDS011;6125;59.628;17.852;2023-08-21T08:15:38;5.33;;;2.93;;
12122;SDS011;6125;59.628;17.852;2023-08-21T08:18:10;5.60;;;2.80;;
12122;SDS011;6125;59.628;17.852;2023-08-21T08:20:37;4.73;;;2.37;;
12122;SDS011;6125;59.628;17.852;2023-08-21T08:23:05;4.30;;;2.50;;
12122;SDS011;6125;59.628;17.852;2023-08-21T08:25:32;6.10;;;2.73;;
12122;SDS011;6125;59.628;17.852;2023-08-21T08:27:59;3.70;;;2.53;;
12122;SDS011;6125;59.628;17.852;2023-08-21T08:30:26;5.47;;;3.20;;
12122;SDS011;6125;59.628;17.852;2023-08-21T08:32:53;5.90;;;2.63;;
12122;SDS011;6125;59.628;17.852;2023-08-21T08:35:22;5.67;;;3.00;;
12122;SDS011;6125;59.628;17.852;2023-08-21T08:37:49;8.20;;;2.83;;
12122;SDS011;6125;59.628;17.852;2023-08-21T08:40:16;5.77;;;2.90;;
12122;SDS011;6125;59.628;17.852;2023-08-21T08:42:43;4.80;;;2.70;;
12122;SDS011;6125;59.628;17.852;2023-08-21T08:45:12;5.67;;;2.80;;
12122;SDS011;6125;59.628;17.852;2023-08-21T08:47:40;4.30;;;2.60;;
12122;SDS011;6125;59.628;17.852;2023-08-21T08:50:08;6.27;;;2.63;;
12122;SDS011;6125;59.628;17.852;2023-08-21T08:52:37;6.13;;;2.43;;
12122;SDS011;6125;59.628;17.852;2023-08-21T08:55:05;6.03;;;2.60;;
12122;SDS011;6125;59.628;17.852;2023-08-21T08:57:33;6.60;;;2.60;;
12122;SDS011;6125;59.628;17.852;2023-08-21T09:00:01;5.37;;;2.30;;
12122;SDS011;6125;59.628;17.852;2023-08-21T09:02:29;7.70;;;2.57;;
12122;SDS011;6125;59.628;17.852;2023-08-21T09:04:57;4.23;;;2.30;;
12122;SDS011;6125;59.628;17.852;2023-08-21T09:07:24;4.73;;;2.67;;
12122;SDS011;6125;59.628;17.852;2023-08-21T09:09:53;5.67;;;2.87;;
12122;SDS011;6125;59.628;17.852;2023-08-21T09:12:20;8.30;;;2.77;;
12122;SDS011;6125;59.628;17.852;2023-08-21T09:14:48;9.40;;;2.73;;
12122;SDS011;6125;59.628;17.852;2023-08-21T09:17:16;4.93;;;2.50;;
12122;SDS011;6125;59.628;17.852;2023-08-21T09:19:43;6.20;;;3.03;;
12122;SDS011;6125;59.628;17.852;2023-08-21T09:22:11;3.00;;;2.40;;
12122;SDS011;6125;59.628;17.852;2023-08-21T09:24:39;4.40;;;2.40;;
12122;SDS011;6125;59.628;17.852;2023-08-21T09:27:14;7.33;;;2.73;;
12122;SDS011;6125;59.628;17.852;2023-08-21T09:29:44;5.57;;;2.70;;
12122;SDS011;6125;59.628;17.852;2023-08-21T09:32:13;6.70;;;2.70;;
12122;SDS011;6125;59.628;17.852;2023-08-21T09:34:41;5.23;;;2.60;;
12122;SDS011;6125;59.628;17.852;2023-08-21T09:37:08;6.17;;;2.67;;
12122;SDS011;6125;59.628;17.852;2023-08-21T09:39:36;2.93;;;2.63;;
12122;SDS011;6125;59.628;17.852;2023-08-21T09:42:06;5.70;;;2.60;;
12122;SDS011;6125;59.628;17.852;2023-08-21T09:44:39;5.33;;;2.20;;
12122;SDS011;6125;59.628;17.852;2023-08-21T09:47:08;5.47;;;2.67;;
12122;SDS011;6125;59.628;17.852;2023-08-21T09:49:36;4.53;;;2.20;;
12122;SDS011;6125;59.628;17.852;2023-08-21T09:52:04;6.47;;;2.67;;
12122;SDS011;6125;59.628;17.852;2023-08-21T09:54:33;9.63;;;3.13;;
12122;SDS011;6125;59.628;17.852;2023-08-21T09:57:01;3.23;;;2.10;;
12122;SDS011;6125;59.628;17.852;2023-08-21T09:59:29;4.83;;;2.23;;
12122;SDS011;6125;59.628;17.852;2023-08-21T10:01:58;4.73;;;2.20;;
12122;SDS011;6125;59.628;17.852;2023-08-21T10:04:27;4.97;;;2.47;;
12122;SDS011;6125;59.628;17.852;2023-08-21T10:06:56;3.63;;;2.20;;
12122;SDS011;6125;59.628;17.852;2023-08-21T10:09:24;4.80;;;2.37;;
12122;SDS011;6125;59.628;17.852;2023-08-21T10:11:52;3.53;;;2.27;;
12122;SDS011;6125;59.628;17.852;2023-08-21T10:14:21;5.07;;;2.07;;
12122;SDS011;6125;59.628;17.852;2023-08-21T10:16:50;7.03;;;2.40;;
12122;SDS011;6125;59.628;17.852;2023-08-21T10:19:20;6.33;;;2.10;;
12122;SDS011;6125;59.628;17.852;2023-08-21T10:21:47;5.50;;;1.97;;
12122;SDS011;6125;59.628;17.852;2023-08-21T10:24:25;4.87;;;2.23;;
12122;SDS011;6125;59.628;17.852;2023-08-21T10:26:57;3.20;;;2.10;;
12122;SDS011;6125;59.628;17.852;2023-08-21T10:29:25;6.47;;;2.13;;
12122;SDS011;6125;59.628;17.852;2023-08-21T10:31:59;7.67;;;2.00;;
12122;SDS011;6125;59.628;17.852;2023-08-21T10:34:36;4.90;;;2.30;;
12122;SDS011;6125;59.628;17.852;2023-08-21T10:37:05;9.97;;;2.40;;
12122;SDS011;6125;59.628;17.852;2023-08-21T10:39:35;6.03;;;2.30;;
12122;SDS011;6125;59.628;17.852;2023-08-21T10:42:05;4.30;;;2.20;;
12122;SDS011;6125;59.628;17.852;2023-08-21T10:44:35;4.97;;;1.97;;
12122;SDS011;6125;59.628;17.852;2023-08-21T10:47:13;5.33;;;2.10;;
12122;SDS011;6125;59.628;17.852;2023-08-21T10:49:43;3.10;;;1.90;;
12122;SDS011;6125;59.628;17.852;2023-08-21T10:52:11;3.87;;;1.90;;
12122;SDS011;6125;59.628;17.852;2023-08-21T10:54:46;4.87;;;1.97;;
12122;SDS011;6125;59.628;17.852;2023-08-21T10:57:14;4.53;;;1.90;;
12122;SDS011;6125;59.628;17.852;2023-08-21T10:59:53;4.47;;;1.90;;
12122;SDS011;6125;59.628;17.852;2023-08-21T11:02:22;3.70;;;2.30;;
12122;SDS011;6125;59.628;17.852;2023-08-21T11:04:51;3.97;;;1.90;;
12122;SDS011;6125;59.628;17.852;2023-08-21T11:07:19;5.47;;;2.13;;
12122;SDS011;6125;59.628;17.852;2023-08-21T11:09:47;4.43;;;2.13;;
12122;SDS011;6125;59.628;17.852;2023-08-21T11:12:15;4.60;;;2.20;;
12122;SDS011;6125;59.628;17.852;2023-08-21T11:14:43;6.80;;;2.40;;
12122;SDS011;6125;59.628;17.852;2023-08-21T11:17:11;3.40;;;1.90;;
12122;SDS011;6125;59.628;17.852;2023-08-21T11:19:39;6.53;;;2.27;;
12122;SDS011;6125;59.628;17.852;2023-08-21T11:22:08;5.87;;;1.93;;
12122;SDS011;6125;59.628;17.852;2023-08-21T11:24:41;3.73;;;2.07;;
12122;SDS011;6125;59.628;17.852;2023-08-21T11:27:10;4.03;;;2.00;;
12122;SDS011;6125;59.628;17.852;2023-08-21T11:29:39;2.53;;;1.90;;
12122;SDS011;6125;59.628;17.852;2023-08-21T11:32:09;3.23;;;1.93;;
12122;SDS011;6125;59.628;17.852;2023-08-21T11:34:38;4.83;;;2.17;;
12122;SDS011;6125;59.628;17.852;2023-08-21T11:37:06;3.90;;;1.93;;
12122;SDS011;6125;59.628;17.852;2023-08-21T11:39:42;5.10;;;2.30;;
12122;SDS011;6125;59.628;17.852;2023-08-21T11:42:10;3.17;;;1.80;;
12122;SDS011;6125;59.628;17.852;2023-08-21T11:44:45;4.00;;;1.93;;
12122;SDS011;6125;59.628;17.852;2023-08-21T11:47:14;5.87;;;2.20;;
12122;SDS011;6125;59.628;17.852;2023-08-21T11:49:42;3.03;;;1.87;;
12122;SDS011;6125;59.628;17.852;2023-08-21T11:52:12;3.40;;;1.87;;
12122;SDS011;6125;59.628;17.852;2023-08-21T11:54:41;7.27;;;2.10;;
12122;SDS011;6125;59.628;17.852;2023-08-21T11:57:11;3.60;;;2.03;;
12122;SDS011;6125;59.628;17.852;2023-08-21T11:59:40;5.43;;;1.77;;
12122;SDS011;6125;59.628;17.852;2023-08-21T12:02:10;4.80;;;2.07;;
12122;SDS011;6125;59.628;17.852;2023-08-21T12:04:41;5.87;;;2.27;;
12122;SDS011;6125;59.628;17.852;2023-08-21T12:07:08;2.70;;;2.20;;
12122;SDS011;6125;59.628;17.852;2023-08-21T12:09:36;7.07;;;2.13;;
12122;SDS011;6125;59.628;17.852;2023-08-21T12:12:05;3.50;;;1.80;;
12122;SDS011;6125;59.628;17.852;2023-08-21T12:14:33;6.17;;;1.67;;
12122;SDS011;6125;59.628;17.852;2023-08-21T12:17:04;3.50;;;2.23;;
12122;SDS011;6125;59.628;17.852;2023-08-21T12:19:32;5.97;;;1.90;;
12122;SDS011;6125;59.628;17.852;2023-08-21T12:21:59;5.73;;;2.30;;
12122;SDS011;6125;59.628;17.852;2023-08-21T12:24:26;2.50;;;1.50;;
12122;SDS011;6125;59.628;17.852;2023-08-21T12:26:53;4.00;;;1.60;;
12122;SDS011;6125;59.628;17.852;2023-08-21T12:29:22;4.23;;;1.90;;
12122;SDS011;6125;59.628;17.852;2023-08-21T12:31:49;6.23;;;2.30;;
12122;SDS011;6125;59.628;17.852;2023-08-21T12:34:16;3.57;;;1.77;;
12122;SDS011;6125;59.628;17.852;2023-08-21T12:36:43;3.00;;;1.93;;
12122;SDS011;6125;59.628;17.852;2023-08-21T12:39:10;3.43;;;1.73;;
12122;SDS011;6125;59.628;17.852;2023-08-21T12:41:37;5.97;;;1.60;;
12122;SDS011;6125;59.628;17.852;2023-08-21T12:44:04;4.20;;;2.63;;
12122;SDS011;6125;59.628;17.852;2023-08-21T12:46:35;5.20;;;1.63;;
12122;SDS011;6125;59.628;17.852;2023-08-21T12:49:02;5.83;;;1.83;;
12122;SDS011;6125;59.628;17.852;2023-08-21T12:51:29;5.17;;;2.00;;
12122;SDS011;6125;59.628;17.852;2023-08-21T12:53:57;6.07;;;2.20;;
12122;SDS011;6125;59.628;17.852;2023-08-21T12:56:23;4.57;;;1.80;;
12122;SDS011;6125;59.628;17.852;2023-08-21T12:58:50;3.87;;;1.60;;
12122;SDS011;6125;59.628;17.852;2023-08-21T13:01:17;5.77;;;2.00;;
12122;SDS011;6125;59.628;17.852;2023-08-21T13:03:47;2.83;;;1.60;;
12122;SDS011;6125;59.628;17.852;2023-08-21T13:06:14;5.87;;;1.63;;
12122;SDS011;6125;59.628;17.852;2023-08-21T13:08:41;3.17;;;1.50;;
12122;SDS011;6125;59.628;17.852;2023-08-21T13:11:08;3.03;;;1.60;;
12122;SDS011;6125;59.628;17.852;2023-08-21T13:13:44;3.10;;;1.50;;
12122;SDS011;6125;59.628;17.852;2023-08-21T13:16:11;3.20;;;1.53;;
12122;SDS011;6125;59.628;17.852;2023-08-21T13:18:38;3.73;;;1.90;;
12122;SDS011;6125;59.628;17.852;2023-08-21T13:21:07;5.27;;;1.77;;
12122;SDS011;6125;59.628;17.852;2023-08-21T13:23:34;5.77;;;1.83;;
12122;SDS011;6125;59.628;17.852;2023-08-21T13:26:01;3.83;;;1.80;;
12122;SDS011;6125;59.628;17.852;2023-08-21T13:28:28;4.77;;;1.80;;
12122;SDS011;6125;59.628;17.852;2023-08-21T13:30:56;6.37;;;1.97;;
12122;SDS011;6125;59.628;17.852;2023-08-21T13:33:23;4.53;;;1.73;;
12122;SDS011;6125;59.628;17.852;2023-08-21T13:35:50;3.13;;;1.70;;
12122;SDS011;6125;59.628;17.852;2023-08-21T13:38:19;5.07;;;1.70;;
12122;SDS011;6125;59.628;17.852;2023-08-21T13:40:46;4.47;;;1.63;;
12122;SDS011;6125;59.628;17.852;2023-08-21T13:43:13;2.40;;;1.73;;
12122;SDS011;6125;59.628;17.852;2023-08-21T13:45:40;2.87;;;1.50;;
12122;SDS011;6125;59.628;17.852;2023-08-21T13:48:08;4.57;;;1.60;;
12122;SDS011;6125;59.628;17.852;2023-08-21T13:50:35;2.43;;;1.47;;
12122;SDS011;6125;59.628;17.852;2023-08-21T13:53:02;4.63;;;1.53;;
12122;SDS011;6125;59.628;17.852;2023-08-21T13:55:31;3.87;;;1.70;;
12122;SDS011;6125;59.628;17.852;2023-08-21T13:57:58;2.60;;;1.53;;
12122;SDS011;6125;59.628;17.852;2023-08-21T14:00:25;4.50;;;1.40;;
12122;SDS011;6125;59.628;17.852;2023-08-21T14:02:53;2.73;;;1.53;;
12122;SDS011;6125;59.628;17.852;2023-08-21T14:05:20;3.33;;;1.30;;
12122;SDS011;6125;59.628;17.852;2023-08-21T14:07:47;4.53;;;1.47;;
12122;SDS011;6125;59.628;17.852;2023-08-21T14:10:14;2.97;;;1.20;;
12122;SDS011;6125;59.628;17.852;2023-08-21T14:12:43;3.03;;;1.53;;
12122;SDS011;6125;59.628;17.852;2023-08-21T14:15:10;2.00;;;1.10;;
12122;SDS011;6125;59.628;17.852;2023-08-21T14:17:37;5.80;;;1.40;;
12122;SDS011;6125;59.628;17.852;2023-08-21T14:20:05;2.50;;;1.33;;
12122;SDS011;6125;59.628;17.852;2023-08-21T14:22:33;1.97;;;1.00;;
12122;SDS011;6125;59.628;17.852;2023-08-21T14:25:00;2.60;;;1.20;;
12122;SDS011;6125;59.628;17.852;2023-08-21T14:27:28;2.83;;;1.20;;
12122;SDS011;6125;59.628;17.852;2023-08-21T14:29:56;1.80;;;1.10;;
12122;SDS011;6125;59.628;17.852;2023-08-21T14:32:24;6.00;;;1.27;;
12122;SDS011;6125;59.628;17.852;2023-08-21T14:34:51;2.20;;;1.27;;
12122;SDS011;6125;59.628;17.852;2023-08-21T14:37:19;2.37;;;1.30;;
12122;SDS011;6125;59.628;17.852;2023-08-21T14:39:48;1.73;;;1.00;;
12122;SDS011;6125;59.628;17.852;2023-08-21T14:42:16;3.27;;;1.20;;
12122;SDS011;6125;59.628;17.852;2023-08-21T14:44:43;3.60;;;1.30;;
12122;SDS011;6125;59.628;17.852;2023-08-21T14:47:11;2.70;;;1.50;;
12122;SDS011;6125;59.628;17.852;2023-08-21T14:49:38;6.93;;;1.47;;